• Join FlightAware (Why Join?)
  • Login
  • US Flag 
02:24AM EDT


 

Airport Tracker/Info


-or-


 

Live Flight TrackerFlight Track Log ✈ N965MR ✈ 08-Nov-2013 ✈ 2W6 - KGAI

Flight Track Log - Related Links

Times and Time Zones

All times are in EST time to prevent confusion due to time zone crossing. See the N965MR flight status page for this flight to view local times or setup timezone preferences in your user account.

Time Position Orientation Groundspeed Altitude Reporting Facility
EST Latitude Longitude Course Direction KTS MPH feet Rate Location/Type
11:57AM 38.3592 -76.5344 38° Northeast 148 170 2,400  Level Washington Center
11:58AM 38.3908 -76.5031 38° Northeast 147 169 3,900 1,260 Climbing Washington Center
11:59AM 38.4286 -76.4717 33° Northeast 157 181 4,900 480 Climbing Washington Center
12:00PM 38.4747 -76.4350 32° Northeast 191 220 4,900  Level Washington Center
12:02PM 38.5500 -76.3667 35° Northeast 182 209 5,000  Climbing Potomac TRACON
12:03PM 38.5833 -76.3333 38° Northeast 183 211 4,900 360 Descending Potomac TRACON
12:04PM 38.6167 -76.3000 38° Northeast 166 191 5,800 540 Climbing Potomac TRACON
12:05PM 38.6667 -76.3000 360° North 167 192 6,100 60 Climbing Potomac TRACON
12:06PM 38.7167 -76.3167 345° North 173 199 6,000 -60 Descending Potomac TRACON
12:07PM 38.7667 -76.3167 360° North 177 204 6,000  Level Potomac TRACON
12:08PM 38.8167 -76.3167 360° North 174 200 6,000  Level Potomac TRACON
12:09PM 38.8667 -76.3167 360° North 173 199 6,000  Level Potomac TRACON
12:10PM 38.9000 -76.3333 339° North 172 198 6,000  Level Potomac TRACON
12:11PM 38.9500 -76.3500 345° North 171 197 6,000  Level Potomac TRACON
12:12PM 38.9833 -76.3833 322° Northwest 169 194 6,000  Level Potomac TRACON
12:13PM 39.0167 -76.4167 322° Northwest 164 189 6,000  Level Potomac TRACON
12:14PM 39.0667 -76.4500 333° Northwest 161 185 6,000  Level Potomac TRACON
12:15PM 39.0833 -76.5000 293° West 160 184 6,000  Level Potomac TRACON
12:16PM 39.1000 -76.5500 293° West 165 190 6,000  Level Potomac TRACON
12:17PM 39.1000 -76.6167 270° West 166 191 6,000  Level Potomac TRACON
12:18PM 39.1000 -76.6667 270° West 162 186 6,000  Level Potomac TRACON
12:19PM 39.1167 -76.7167 293° West 171 197 6,000 -60 Level Potomac TRACON
12:20PM 39.1167 -76.7833 270° West 170 196 5,900 -300 Descending Potomac TRACON
12:21PM 39.1333 -76.8500 288° West 160 184 5,400 -660 Descending Potomac TRACON
12:22PM 39.1333 -76.9000 270° West 153 176 4,600 -900 Descending Potomac TRACON
12:23PM 39.1500 -76.9500 293° West 160 184 3,700 -780 Descending Potomac TRACON
12:24PM 39.1500 -77.0000 270° West 163 188 3,200 -720 Descending Potomac TRACON
12:25PM 39.1333 -77.0500 247° West 154 177 2,400 -840 Descending Potomac TRACON
12:26PM 39.1333 -77.1167 270° West 152 175 1,500 -840 Descending Potomac TRACON
12:28PM 39.1667 -77.1500 270° West  Level FlightAware Approximate
12:35PM 39.1683 -77.1660 270° West  Level Estimated
12:36PM 39.1683 -77.1660 270° West  Level Estimated